Time;durP1;ratioP1;P1;durP2;ratioP2;P2;SDS_P1;SDS_P2;PMS_P1;PMS_P2;Temp;Humidity;BMP_temperature;BMP_pressure;BME280_temperature;BME280_humidity;BME280_pressure;Samples;Min_cycle;Max_cycle;Signal;HPM_P1;HPM_P2
2023/09/17 00:01:15;;;;;;;;;;;;;;;22.45;50.57;101310.03;4961824;28;124118;-75
2023/09/17 00:03:42;;;;;;;;;;;;;;;22.38;50.54;101319.63;4961506;28;122742;-76
2023/09/17 00:06:09;;;;;;;;;;;;;;;22.29;50.67;101321.31;4962769;28;119254;-75
2023/09/17 00:08:38;;;;;;;;;;;;;;;22.20;50.78;101322.09;4968249;28;118607;-75
2023/09/17 00:11:05;;;;;;;;;;;;;;;22.11;50.86;101318.34;4962778;28;125121;-75
2023/09/17 00:13:33;;;;;;;;;;;;;;;22.03;50.89;101326.25;4969470;28;124650;-75
2023/09/17 00:16:00;;;;;;;;;;;;;;;21.96;50.95;101331.28;4965139;28;121016;-76
2023/09/17 00:18:27;;;;;;;;;;;;;;;21.86;51.00;101325.84;4964940;28;118593;-75
2023/09/17 00:20:54;;;;;;;;;;;;;;;21.78;50.90;101323.78;4963367;28;124569;-75
2023/09/17 00:23:21;;;;;;;;;;;;;;;21.71;51.03;101321.75;4963415;28;123987;-75
2023/09/17 00:25:49;;;;;;;;;;;;;;;21.63;51.12;101313.47;4963675;28;119433;-76
2023/09/17 00:28:16;;;;;;;;;;;;;;;21.53;51.12;101298.06;4962924;28;118517;-76
2023/09/17 00:30:43;;;;;;;;;;;;;;;21.45;51.21;101284.34;4978276;28;123372;-76
2023/09/17 00:33:11;;;;;;;;;;;;;;;21.38;51.39;101275.06;4967734;28;124802;-76
2023/09/17 00:35:38;;;;;;;;;;;;;;;21.30;51.44;101269.47;4957156;28;119902;-76
2023/09/17 00:38:05;;;;;;;;;;;;;;;21.23;51.55;101268.25;4957920;28;121264;-76
2023/09/17 00:40:34;;;;;;;;;;;;;;;21.17;51.58;101265.09;4942113;28;124946;-76
2023/09/17 00:43:02;;;;;;;;;;;;;;;21.10;51.60;101258.50;4953851;28;123196;-76
2023/09/17 00:45:30;;;;;;;;;;;;;;;21.04;51.78;101248.25;4951454;28;119078;-76
2023/09/17 00:47:57;;;;;;;;;;;;;;;20.96;51.85;101250.72;4955987;28;118487;-76
2023/09/17 00:50:25;;;;;;;;;;;;;;;20.87;51.81;101251.47;4966364;28;124564;-76
2023/09/17 00:52:52;;;;;;;;;;;;;;;20.83;52.00;101239.25;4965904;28;124126;-76
2023/09/17 00:55:19;;;;;;;;;;;;;;;20.77;51.92;101245.97;4960945;28;119748;-76
2023/09/17 00:57:47;;;;;;;;;;;;;;;20.72;51.96;101243.69;4965651;28;118357;-75
2023/09/17 01:00:15;;;;;;;;;;;;;;;20.68;51.95;101235.97;4964628;28;125430;-76
2023/09/17 01:02:43;;;;;;;;;;;;;;;20.64;52.16;101240.75;4968478;28;124462;-75
2023/09/17 01:05:10;;;;;;;;;;;;;;;20.60;52.09;101234.75;4963220;28;119156;-76
2023/09/17 01:07:38;;;;;;;;;;;;;;;20.55;52.01;101219.94;4962144;28;117675;-75
2023/09/17 01:10:06;;;;;;;;;;;;;;;20.54;52.15;101229.00;4959701;28;124344;-76
2023/09/17 01:12:33;;;;;;;;;;;;;;;20.52;52.18;101230.97;4972520;28;124093;-76
2023/09/17 01:15:08;;;;;;;;;;;;;;;20.50;52.29;101227.53;4957921;28;119560;-76
2023/09/17 01:17:35;;;;;;;;;;;;;;;20.47;52.62;101227.78;4953462;28;119956;-76
2023/09/17 01:20:24;;;;;;;;;;;;;;;20.42;52.50;101229.00;4958857;28;124439;-76
2023/09/17 01:22:55;;;;;;;;;;;;;;;20.40;52.79;101243.56;4960352;28;125337;-76
2023/09/17 01:25:40;;;;;;;;;;;;;;;20.37;52.61;101247.34;4952165;28;120521;-77
2023/09/17 01:28:08;;;;;;;;;;;;;;;20.37;52.58;101241.97;4958598;28;119765;-75
2023/09/17 01:30:37;;;;;;;;;;;;;;;20.34;52.56;101228.78;4951853;28;123883;-75
2023/09/17 01:33:04;;;;;;;;;;;;;;;20.34;52.48;101239.53;4960884;28;124168;-76
2023/09/17 01:35:33;;;;;;;;;;;;;;;20.33;52.57;101259.34;4957455;28;119711;-76
2023/09/17 01:38:01;;;;;;;;;;;;;;;20.34;52.48;101277.22;4966801;28;118832;-75
2023/09/17 01:40:28;;;;;;;;;;;;;;;20.38;52.62;101273.28;4964237;28;124437;-76
2023/09/17 01:42:56;;;;;;;;;;;;;;;20.40;52.40;101265.94;4964853;28;124006;-75
2023/09/17 01:45:24;;;;;;;;;;;;;;;20.40;52.40;101260.56;4958992;28;120065;-75
2023/09/17 01:47:51;;;;;;;;;;;;;;;20.39;52.27;101253.47;4957927;28;119288;-75
2023/09/17 01:50:23;;;;;;;;;;;;;;;20.36;52.28;101252.84;4969466;28;124345;-75
2023/09/17 01:52:50;;;;;;;;;;;;;;;20.32;52.31;101252.22;4959633;28;123565;-75
2023/09/17 01:55:18;;;;;;;;;;;;;;;20.29;52.27;101251.66;4946005;28;118661;-75
2023/09/17 01:57:45;;;;;;;;;;;;;;;20.23;52.41;101243.06;4963333;28;119064;-76
2023/09/17 02:00:16;;;;;;;;;;;;;;;20.19;52.32;101235.34;4964684;28;123968;-75
2023/09/17 02:02:47;;;;;;;;;;;;;;;20.16;52.48;101246.38;4965122;28;124377;-76
2023/09/17 02:05:16;;;;;;;;;;;;;;;20.14;52.42;101248.34;4977309;28;119350;-75
2023/09/17 02:07:43;;;;;;;;;;;;;;;20.11;52.44;101237.81;4962535;28;118925;-75
2023/09/17 02:10:11;;;;;;;;;;;;;;;20.10;52.50;101241.47;4963774;28;121576;-75
2023/09/17 02:12:39;;;;;;;;;;;;;;;20.07;52.49;101230.97;4958425;28;123426;-75
2023/09/17 02:15:06;;;;;;;;;;;;;;;20.06;52.42;101218.47;4970568;28;119738;-76
2023/09/17 02:17:33;;;;;;;;;;;;;;;20.03;52.53;101220.44;4961433;28;119157;-76
2023/09/17 02:20:00;;;;;;;;;;;;;;;20.00;52.49;101231.47;4956110;28;123042;-75
2023/09/17 02:22:28;;;;;;;;;;;;;;;19.98;52.63;101232.53;4944083;28;124378;-75
2023/09/17 02:24:55;;;;;;;;;;;;;;;19.98;52.78;101232.53;4956837;28;120161;-75
2023/09/17 02:27:22;;;;;;;;;;;;;;;19.98;52.59;101228.00;4970947;28;118340;-76
2023/09/17 02:29:49;;;;;;;;;;;;;;;19.98;52.53;101222.63;4958034;28;123962;-75
2023/09/17 02:32:16;;;;;;;;;;;;;;;19.98;52.68;101222.63;4955191;28;124603;-75
2023/09/17 02:34:43;;;;;;;;;;;;;;;19.98;52.58;101222.63;4962984;28;119088;-75
2023/09/17 02:37:10;;;;;;;;;;;;;;;19.98;52.66;101219.94;4966698;28;118675;-75
2023/09/17 02:39:37;;;;;;;;;;;;;;;19.99;52.58;101215.44;4960501;28;123713;-76
2023/09/17 02:42:06;;;;;;;;;;;;;;;19.99;52.64;101208.22;4967118;28;124079;-75
2023/09/17 02:44:33;;;;;;;;;;;;;;;19.98;52.68;101211.03;4965670;28;119154;-76
2023/09/17 02:47:02;;;;;;;;;;;;;;;19.97;52.71;101206.66;4962906;28;118497;-76
2023/09/17 02:49:30;;;;;;;;;;;;;;;19.96;52.65;101203.06;4957794;28;124083;-75
2023/09/17 02:51:57;;;;;;;;;;;;;;;19.96;52.73;101197.69;4955254;28;124065;-76
2023/09/17 02:54:24;;;;;;;;;;;;;;;19.96;52.78;101200.41;4965418;28;120557;-76
2023/09/17 02:56:52;;;;;;;;;;;;;;;19.97;52.81;101199.44;4960079;28;119881;-76
2023/09/17 02:59:19;;;;;;;;;;;;;;;19.97;52.73;101199.44;4957380;28;124709;-76
2023/09/17 03:01:46;;;;;;;;;;;;;;;19.97;52.74;101194.06;4957495;28;123256;-75
2023/09/17 03:04:14;;;;;;;;;;;;;;;19.97;52.77;101199.44;4953651;28;120163;-75
2023/09/17 03:06:41;;;;;;;;;;;;;;;19.96;52.93;101192.31;4961291;28;119870;-76
2023/09/17 03:09:10;;;;;;;;;;;;;;;19.95;53.06;101195.16;4954778;28;126177;-75
2023/09/17 03:11:39;;;;;;;;;;;;;;;19.89;53.15;101191.13;4963866;28;126428;-76
2023/09/17 03:14:06;;;;;;;;;;;;;;;19.88;53.35;101189.41;4965031;28;122402;-75
2023/09/17 03:16:33;;;;;;;;;;;;;;;19.89;53.23;101175.00;4972132;28;117153;-76
2023/09/17 03:19:01;;;;;;;;;;;;;;;19.90;53.17;101171.31;4962675;28;126061;-75
2023/09/17 03:21:28;;;;;;;;;;;;;;;19.92;53.31;101172.03;4954511;28;125636;-75
2023/09/17 03:23:56;;;;;;;;;;;;;;;19.92;53.27;101169.34;4951441;28;119927;-75
2023/09/17 03:26:24;;;;;;;;;;;;;;;19.93;53.28;101171.09;4940490;28;119782;-76
2023/09/17 03:28:51;;;;;;;;;;;;;;;19.94;53.25;101164.72;4960154;28;123652;-75
2023/09/17 03:31:18;;;;;;;;;;;;;;;19.93;53.20;101165.72;4961059;28;124335;-75
2023/09/17 03:33:48;;;;;;;;;;;;;;;19.93;53.34;101165.72;4975524;28;118708;-75
2023/09/17 03:36:15;;;;;;;;;;;;;;;19.92;53.34;101165.81;4960810;28;118940;-75
2023/09/17 03:38:42;;;;;;;;;;;;;;;19.90;53.52;101160.56;4969012;28;124315;-76
2023/09/17 03:41:12;;;;;;;;;;;;;;;19.88;53.63;101162.50;4969364;28;96884;-75
2023/09/17 03:43:38;;;;;;;;;;;;;;;19.88;53.88;101165.22;4962824;28;120341;-76
2023/09/17 03:46:06;;;;;;;;;;;;;;;19.86;53.75;101158.25;4957889;28;119792;-76
2023/09/17 03:48:33;;;;;;;;;;;;;;;19.84;53.88;101161.06;4965926;28;124544;-76
2023/09/17 03:51:00;;;;;;;;;;;;;;;19.84;53.83;101155.69;4957295;28;123977;-76
2023/09/17 03:53:29;;;;;;;;;;;;;;;19.84;54.27;101166.44;4961756;28;120619;-76
2023/09/17 03:55:57;;;;;;;;;;;;;;;19.83;54.41;101154.84;4952404;28;120029;-76
2023/09/17 03:58:26;;;;;;;;;;;;;;;19.81;54.52;101162.13;4966866;28;122803;-76
2023/09/17 04:00:53;;;;;;;;;;;;;;;19.83;54.38;101170.06;4967654;28;122249;-75
2023/09/17 04:03:20;;;;;;;;;;;;;;;19.83;54.24;101159.31;4955497;28;120353;-75
2023/09/17 04:05:49;;;;;;;;;;;;;;;19.86;54.20;101164.47;4963319;28;118735;-75
2023/09/17 04:08:16;;;;;;;;;;;;;;;19.86;54.32;101159.09;4959795;28;125227;-76
2023/09/17 04:10:44;;;;;;;;;;;;;;;19.89;54.41;101158.88;4959297;28;124028;-76
2023/09/17 04:13:12;;;;;;;;;;;;;;;19.94;54.30;101162.03;4969443;28;120774;-76
2023/09/17 04:15:39;;;;;;;;;;;;;;;19.97;54.30;101164.47;4967597;28;118194;-76
2023/09/17 04:18:06;;;;;;;;;;;;;;;20.01;54.30;101168.63;4959172;28;123780;-76
2023/09/17 04:20:35;;;;;;;;;;;;;;;20.06;54.29;101168.28;4958014;28;123698;-76
2023/09/17 04:23:03;;;;;;;;;;;;;;;20.11;54.23;101157.97;4966426;28;119282;-76
2023/09/17 04:25:32;;;;;;;;;;;;;;;20.13;54.25;101157.88;4962767;28;117065;-76
2023/09/17 04:27:59;;;;;;;;;;;;;;;20.16;54.11;101157.63;4961804;28;123932;-76
2023/09/17 04:30:27;;;;;;;;;;;;;;;20.18;54.17;101142.22;4961560;28;125266;-75
2023/09/17 04:32:54;;;;;;;;;;;;;;;20.18;54.21;101153.81;4962094;28;119623;-75
2023/09/17 04:35:22;;;;;;;;;;;;;;;20.18;54.17;101147.59;4958519;28;120388;-75
2023/09/17 04:37:51;;;;;;;;;;;;;;;20.18;54.25;101150.28;4949537;28;123596;-75
2023/09/17 04:40:28;;;;;;;;;;;;;;;20.18;54.38;101142.22;4965226;28;123846;-76
2023/09/17 04:42:57;;;;;;;;;;;;;;;20.20;54.23;101145.63;4971752;28;119816;-75
2023/09/17 04:45:45;;;;;;;;;;;;;;;20.20;54.27;101141.09;4968922;28;119820;-75
2023/09/17 04:48:25;;;;;;;;;;;;;;;20.22;54.28;101143.69;4963556;28;123633;-75
2023/09/17 04:50:53;;;;;;;;;;;;;;;20.25;54.36;101148.81;4951144;28;123125;-75
2023/09/17 04:53:20;;;;;;;;;;;;;;;20.27;54.16;101144.16;4967609;28;119046;-76
2023/09/17 04:55:48;;;;;;;;;;;;;;;20.27;54.43;101138.78;4967468;28;118172;-75
2023/09/17 04:58:19;;;;;;;;;;;;;;;20.30;54.39;101134.97;4961228;28;122695;-76
2023/09/17 05:00:48;;;;;;;;;;;;;;;20.30;54.81;101141.22;4964630;28;123518;-75
2023/09/17 05:03:16;;;;;;;;;;;;;;;20.32;54.59;101147.31;4969001;28;119711;-76
2023/09/17 05:05:43;;;;;;;;;;;;;;;20.33;54.75;101140.13;4959856;28;117724;-75
2023/09/17 05:08:11;;;;;;;;;;;;;;;20.35;54.76;101144.38;4963118;28;125459;-75
2023/09/17 05:10:38;;;;;;;;;;;;;;;20.36;54.76;101140.72;4963035;28;124676;-76
2023/09/17 05:13:05;;;;;;;;;;;;;;;20.39;54.80;101139.63;4973442;28;119113;-75
2023/09/17 05:15:34;;;;;;;;;;;;;;;20.42;54.78;101140.22;4962010;28;118256;-76
2023/09/17 05:18:06;;;;;;;;;;;;;;;20.49;54.74;101145.09;4958414;28;123666;-76
2023/09/17 05:20:33;;;;;;;;;;;;;;;20.52;54.71;101150.22;4966223;28;123886;-75
2023/09/17 05:23:01;;;;;;;;;;;;;;;20.55;54.64;101149.97;4967426;28;118124;-75
2023/09/17 05:25:29;;;;;;;;;;;;;;;20.58;55.26;101138.94;4947297;28;117715;-75
2023/09/17 05:27:56;;;;;;;;;;;;;;;20.58;55.21;101138.94;4961953;28;122576;-75
2023/09/17 05:30:25;;;;;;;;;;;;;;;20.60;55.20;101158.53;4957128;28;124455;-75
2023/09/17 05:32:52;;;;;;;;;;;;;;;20.65;55.14;101158.19;4948425;28;120270;-75
2023/09/17 05:35:19;;;;;;;;;;;;;;;20.70;54.94;101159.50;4961701;28;122813;-76
2023/09/17 05:37:46;;;;;;;;;;;;;;;20.75;55.14;101146.50;4958025;28;124959;-76
2023/09/17 05:40:13;;;;;;;;;;;;;;;20.80;55.05;101157.75;4956783;28;126384;-76
2023/09/17 05:42:41;;;;;;;;;;;;;;;20.86;54.96;101159.06;4956958;28;119043;-76
2023/09/17 05:45:08;;;;;;;;;;;;;;;20.90;54.92;101156.97;4963062;28;119037;-77
2023/09/17 05:47:36;;;;;;;;;;;;;;;20.94;54.92;101151.19;4960452;28;126747;-76
2023/09/17 05:50:03;;;;;;;;;;;;;;;20.99;55.03;101158.91;4961424;28;122966;-76
2023/09/17 05:52:33;;;;;;;;;;;;;;;21.03;54.95;101146.88;4971952;28;119244;-76
2023/09/17 05:55:03;;;;;;;;;;;;;;;21.08;54.78;101147.38;4954966;28;119174;-76
2023/09/17 05:57:32;;;;;;;;;;;;;;;21.10;54.79;101145.38;4959613;28;123490;-76
2023/09/17 06:00:02;;;;;;;;;;;;;;;21.11;54.83;101157.84;4976566;28;125360;-74
2023/09/17 06:02:40;;;;;;;;;;;;;;;21.11;54.88;101155.16;4966665;28;120647;-75
2023/09/17 06:05:11;;;;;;;;;;;;;;;21.10;54.99;101156.16;4959183;28;117814;-76
2023/09/17 06:07:38;;;;;;;;;;;;;;;21.10;55.49;101150.78;4958097;28;125511;-76
2023/09/17 06:10:06;;;;;;;;;;;;;;;21.08;55.38;101152.75;4961830;28;123554;-76
2023/09/17 06:12:33;;;;;;;;;;;;;;;21.08;55.40;101155.44;4947206;28;119978;-76
2023/09/17 06:15:02;;;;;;;;;;;;;;;21.09;55.40;101148.22;4962509;28;119629;-76
2023/09/17 06:17:29;;;;;;;;;;;;;;;21.11;55.35;101157.84;4957122;28;125343;-76
2023/09/17 06:19:56;;;;;;;;;;;;;;;21.13;55.35;101155.88;4956536;28;124008;-76
2023/09/17 06:22:23;;;;;;;;;;;;;;;21.15;55.29;101153.94;4942593;28;121147;-76
2023/09/17 06:24:50;;;;;;;;;;;;;;;21.15;55.25;101153.94;4960534;28;120533;-76
2023/09/17 06:27:17;;;;;;;;;;;;;;;21.17;55.34;101151.09;4965631;28;125047;-76
2023/09/17 06:29:44;;;;;;;;;;;;;;;21.19;55.30;101151.81;4959226;28;124626;-76
2023/09/17 06:32:11;;;;;;;;;;;;;;;21.20;55.36;101157.06;4957788;28;119769;-76
2023/09/17 06:34:39;;;;;;;;;;;;;;;21.24;55.38;101156.81;4958521;28;119770;-76
2023/09/17 06:37:07;;;;;;;;;;;;;;;21.26;55.32;101149.47;4949409;28;125768;-76
2023/09/17 06:39:35;;;;;;;;;;;;;;;21.28;55.37;101152.88;4964730;28;124252;-76
2023/09/17 06:42:02;;;;;;;;;;;;;;;21.30;55.30;101156.28;4965747;28;120066;-76
2023/09/17 06:44:29;;;;;;;;;;;;;;;21.34;55.26;101163.13;4967554;28;118919;-76
2023/09/17 06:46:56;;;;;;;;;;;;;;;21.36;55.31;101155.75;4966833;28;124760;-76
2023/09/17 06:49:23;;;;;;;;;;;;;;;21.38;55.25;101159.22;4966962;28;124197;-76
2023/09/17 06:51:52;;;;;;;;;;;;;;;21.41;55.22;101158.94;4967109;28;119158;-76
2023/09/17 06:54:19;;;;;;;;;;;;;;;21.44;55.15;101158.69;4967168;28;119165;-76
2023/09/17 06:56:46;;;;;;;;;;;;;;;21.44;55.34;101153.31;4967002;28;124134;-76
2023/09/17 06:59:13;;;;;;;;;;;;;;;21.46;55.21;101151.34;4965543;28;124115;-76
2023/09/17 07:01:41;;;;;;;;;;;;;;;21.48;55.23;101154.75;4964210;28;119116;-76
2023/09/17 07:04:08;;;;;;;;;;;;;;;21.51;55.28;101153.63;4966839;28;118740;-76
2023/09/17 07:06:39;;;;;;;;;;;;;;;21.53;55.26;101149.81;4966742;28;124928;-76
2023/09/17 07:09:07;;;;;;;;;;;;;;;21.55;55.38;101155.94;4962154;28;123833;-76
2023/09/17 07:11:34;;;;;;;;;;;;;;;21.55;55.23;101150.53;4956392;28;120095;-76
2023/09/17 07:14:08;;;;;;;;;;;;;;;21.56;55.32;101144.16;4965080;28;119718;-76
2023/09/17 07:16:36;;;;;;;;;;;;;;;21.57;55.22;101151.25;4966450;28;124190;-76
2023/09/17 07:19:06;;;;;;;;;;;;;;;21.60;55.25;101146.59;4954508;28;124311;-76
2023/09/17 07:21:33;;;;;;;;;;;;;;;21.61;55.33;101153.69;4940009;28;120676;-76
2023/09/17 07:24:00;;;;;;;;;;;;;;;21.62;55.23;101150.00;4967414;28;118331;-76
2023/09/17 07:26:28;;;;;;;;;;;;;;;21.63;55.29;101144.47;4963616;28;124081;-76
2023/09/17 07:28:54;;;;;;;;;;;;;;;21.64;55.29;101148.03;4953083;28;123166;-76
2023/09/17 07:31:22;;;;;;;;;;;;;;;21.64;55.27;101153.41;4963359;28;120495;-75
2023/09/17 07:34:06;;;;;;;;;;;;;;;21.64;55.34;101142.63;4969460;28;119523;-76
2023/09/17 07:36:33;;;;;;;;;;;;;;;21.63;55.40;101151.72;4959748;28;126359;-76
2023/09/17 07:39:00;;;;;;;;;;;;;;;21.64;55.29;101153.41;4959904;28;124380;-76
2023/09/17 07:41:28;;;;;;;;;;;;;;;21.66;55.38;101151.44;4964506;28;119620;-76
2023/09/17 07:43:55;;;;;;;;;;;;;;;21.69;55.34;101153.88;4960217;28;117853;-76
2023/09/17 07:46:22;;;;;;;;;;;;;;;21.70;55.28;101150.19;4963603;28;124316;-76
2023/09/17 07:48:50;;;;;;;;;;;;;;;21.71;55.36;101143.81;4969507;28;123943;-76
2023/09/17 07:51:18;;;;;;;;;;;;;;;21.70;55.34;101147.47;4947154;28;120306;-76
2023/09/17 07:53:45;;;;;;;;;;;;;;;21.68;55.34;101144.06;4958938;28;119109;-76
2023/09/17 07:56:12;;;;;;;;;;;;;;;21.67;55.26;101147.78;4959408;28;124802;-76
2023/09/17 07:58:43;;;;;;;;;;;;;;;21.65;55.44;101149.75;4953085;28;121903;-76
2023/09/17 08:01:11;;;;;;;;;;;;;;;21.65;55.51;101155.13;4959718;28;120717;-76
2023/09/17 08:03:38;;;;;;;;;;;;;;;21.65;55.43;101155.97;4959442;28;118755;-76
2023/09/17 08:06:06;;;;;;;;;;;;;;;21.63;55.57;101157.13;4959839;28;126040;-76
2023/09/17 08:08:33;;;;;;;;;;;;;;;21.62;55.65;101150.00;4964382;28;124241;-76
2023/09/17 08:11:00;;;;;;;;;;;;;;;21.62;55.47;101147.31;4964886;28;118968;-76
2023/09/17 08:13:27;;;;;;;;;;;;;;;21.63;55.67;101157.13;4952475;28;119429;-76
2023/09/17 08:15:55;;;;;;;;;;;;;;;21.65;55.70;101155.13;4958273;28;124170;-76
2023/09/17 08:18:22;;;;;;;;;;;;;;;21.68;55.71;101160.25;4960487;28;123834;-76
2023/09/17 08:20:49;;;;;;;;;;;;;;;21.72;55.83;101161.72;4961997;28;120095;-75
2023/09/17 08:23:16;;;;;;;;;;;;;;;21.76;55.76;101163.16;4956832;28;118638;-76
2023/09/17 08:25:43;;;;;;;;;;;;;;;21.78;55.63;101161.16;4960986;28;124340;-76
2023/09/17 08:28:13;;;;;;;;;;;;;;;21.79;55.82;101162.84;4958410;28;124461;-76
2023/09/17 08:30:40;;;;;;;;;;;;;;;21.78;55.79;101166.56;4956081;28;120788;-76
2023/09/17 08:33:09;;;;;;;;;;;;;;;21.79;55.87;101168.25;4965735;28;118446;-76
2023/09/17 08:35:37;;;;;;;;;;;;;;;21.82;55.80;101173.38;4983216;28;124636;-77
2023/09/17 08:38:04;;;;;;;;;;;;;;;21.84;55.88;101171.41;4966071;28;124372;-76
2023/09/17 08:40:34;;;;;;;;;;;;;;;21.86;55.77;101161.34;4956232;28;120137;-76
2023/09/17 08:43:02;;;;;;;;;;;;;;;21.90;55.85;101159.22;4968944;28;119308;-76
2023/09/17 08:45:30;;;;;;;;;;;;;;;21.95;55.87;101174.00;4967185;28;124386;-76
2023/09/17 08:47:57;;;;;;;;;;;;;;;22.00;55.87;101170.06;4969404;28;123709;-76
2023/09/17 08:50:25;;;;;;;;;;;;;;;22.06;55.77;101174.94;4980447;28;120343;-76
2023/09/17 08:52:59;;;;;;;;;;;;;;;22.10;55.77;101165.56;4956842;28;118708;-76
2023/09/17 08:55:26;;;;;;;;;;;;;;;22.14;55.77;101164.28;4957684;28;122531;-77
2023/09/17 08:58:07;;;;;;;;;;;;;;;22.18;55.84;101165.72;4962062;28;123494;-76
2023/09/17 09:00:35;;;;;;;;;;;;;;;22.23;55.72;101159.94;4957515;28;119317;-76
2023/09/17 09:03:03;;;;;;;;;;;;;;;22.27;55.81;101159.53;4957732;28;118943;-76
2023/09/17 09:05:30;;;;;;;;;;;;;;;22.31;55.66;101169.06;4960754;28;126193;-76
2023/09/17 09:07:58;;;;;;;;;;;;;;;22.33;55.70;101172.47;4960353;28;124127;-77
2023/09/17 09:10:25;;;;;;;;;;;;;;;22.35;55.73;101181.28;4961387;28;120844;-77
2023/09/17 09:12:52;;;;;;;;;;;;;;;22.38;55.80;101180.19;4966420;28;119041;-77
2023/09/17 09:15:20;;;;;;;;;;;;;;;22.43;55.65;101179.75;4958211;28;125119;-77
2023/09/17 09:17:47;;;;;;;;;;;;;;;22.48;55.78;101180.19;4959060;28;124434;-77
2023/09/17 09:20:18;;;;;;;;;;;;;;;22.52;55.75;101182.47;4959144;28;118991;-76
2023/09/17 09:22:45;;;;;;;;;;;;;;;22.57;55.62;101190.16;4961951;28;117926;-77
2023/09/17 09:25:13;;;;;;;;;;;;;;;22.59;55.60;101181.94;4955491;28;125068;-76
2023/09/17 09:27:41;;;;;;;;;;;;;;;22.63;55.67;101195.00;4956558;28;123925;-77
2023/09/17 09:30:09;;;;;;;;;;;;;;;22.66;55.68;101189.34;4949778;28;120347;-76
2023/09/17 09:32:37;;;;;;;;;;;;;;;22.68;55.79;101187.34;4961799;28;117753;-76
2023/09/17 09:35:05;;;;;;;;;;;;;;;22.72;55.82;101187.91;4946668;28;123946;-77
2023/09/17 09:37:33;;;;;;;;;;;;;;;22.76;55.74;101193.91;4967616;28;123831;-76
2023/09/17 09:40:00;;;;;;;;;;;;;;;22.80;55.72;101184.50;4962151;28;120249;-76
2023/09/17 09:42:27;;;;;;;;;;;;;;;22.84;55.80;101183.22;4965832;28;119877;-77
2023/09/17 09:44:54;;;;;;;;;;;;;;;22.88;55.84;101176.56;4960706;28;124813;-77
2023/09/17 09:47:25;;;;;;;;;;;;;;;22.91;55.73;101176.28;4959659;28;124945;-77
2023/09/17 09:49:53;;;;;;;;;;;;;;;22.94;55.68;101170.56;4960729;28;119448;-76
2023/09/17 09:52:21;;;;;;;;;;;;;;;22.98;55.76;101172.03;4945998;28;119714;-77
2023/09/17 09:54:48;;;;;;;;;;;;;;;23.06;55.90;101168.63;4961077;28;124574;-77
2023/09/17 09:57:16;;;;;;;;;;;;;;;23.14;55.90;101166.06;4962484;28;124472;-77
2023/09/17 09:59:45;;;;;;;;;;;;;;;23.22;55.80;101162.66;4960090;28;120013;-76
2023/09/17 10:02:13;;;;;;;;;;;;;;;23.32;55.87;101160.81;4959629;28;118472;-77
2023/09/17 10:04:40;;;;;;;;;;;;;;;23.42;55.78;101161.63;4965295;28;125008;-77
2023/09/17 10:07:07;;;;;;;;;;;;;;;23.47;56.03;101159.34;4967346;28;123833;-77
2023/09/17 10:09:36;;;;;;;;;;;;;;;23.54;55.93;101161.47;4968124;28;119351;-77
2023/09/17 10:12:03;;;;;;;;;;;;;;;23.60;55.87;101164.44;4966219;28;119403;-77
2023/09/17 10:14:34;;;;;;;;;;;;;;;23.68;55.77;101158.31;4959308;28;124005;-78
2023/09/17 10:17:01;;;;;;;;;;;;;;;23.73;55.86;101158.69;4973610;28;124251;-77
2023/09/17 10:19:32;;;;;;;;;;;;;;;23.79;55.83;101150.03;4956613;28;119670;-77
2023/09/17 10:22:00;;;;;;;;;;;;;;;23.85;55.96;101157.56;4959650;28;119202;-77
2023/09/17 10:24:27;;;;;;;;;;;;;;;23.92;55.93;101154.25;4965443;28;123237;-77
2023/09/17 10:26:55;;;;;;;;;;;;;;;23.98;55.79;101153.63;4958357;28;123018;-77
2023/09/17 10:29:23;;;;;;;;;;;;;;;24.00;55.60;101157.06;4966116;28;120576;-76
2023/09/17 10:31:50;;;;;;;;;;;;;;;24.03;55.66;101140.53;4967366;28;120116;-77
2023/09/17 10:34:18;;;;;;;;;;;;;;;24.08;55.92;101143.63;4965974;28;124959;-77
2023/09/17 10:36:47;;;;;;;;;;;;;;;24.13;55.66;101151.28;4960835;28;124759;-77
2023/09/17 10:39:15;;;;;;;;;;;;;;;24.14;55.79;101145.75;4948787;28;118900;-76
2023/09/17 10:41:44;;;;;;;;;;;;;;;24.16;55.65;101135.59;4960281;28;119374;-76
2023/09/17 10:44:14;;;;;;;;;;;;;;;24.23;55.97;101141.28;4952670;28;124312;-77
2023/09/17 10:46:45;;;;;;;;;;;;;;;24.31;55.89;101143.22;4966703;28;126072;-77
2023/09/17 10:49:13;;;;;;;;;;;;;;;24.38;56.04;101141.63;4955137;28;120096;-77
2023/09/17 10:51:40;;;;;;;;;;;;;;;24.46;56.10;101147.13;4964281;28;118695;-77
2023/09/17 10:54:08;;;;;;;;;;;;;;;24.51;55.73;101136.69;4956088;28;124399;-76
2023/09/17 10:56:35;;;;;;;;;;;;;;;24.57;55.82;101138.81;4960911;28;124327;-76
2023/09/17 10:59:03;;;;;;;;;;;;;;;24.60;55.73;101133.09;4968436;28;119642;-77
2023/09/17 11:01:32;;;;;;;;;;;;;;;24.64;55.49;101144.47;4954989;28;120037;-77
2023/09/17 11:04:02;;;;;;;;;;;;;;;24.66;55.54;101143.31;4964559;28;124162;-77
2023/09/17 11:06:31;;;;;;;;;;;;;;;24.71;55.78;101142.00;4960121;28;124407;-76
2023/09/17 11:08:58;;;;;;;;;;;;;;;24.78;55.72;101140.38;4966325;28;118864;-77
2023/09/17 11:11:28;;;;;;;;;;;;;;;24.88;55.93;101146.56;4943684;28;118944;-76
2023/09/17 11:13:55;;;;;;;;;;;;;;;24.97;55.81;101145.63;4964889;28;124128;-76
2023/09/17 11:16:26;;;;;;;;;;;;;;;25.08;55.83;101135.56;4957758;28;123711;-77
2023/09/17 11:19:14;;;;;;;;;;;;;;;25.16;55.66;101138.31;4958048;28;120148;-77
2023/09/17 11:21:42;;;;;;;;;;;;;;;25.20;55.60;101137.88;4960700;28;118883;-77
2023/09/17 11:24:12;;;;;;;;;;;;;;;25.23;55.56;101145.69;4958870;28;124653;-77
2023/09/17 11:26:44;;;;;;;;;;;;;;;25.24;55.57;101147.41;4965061;28;122046;-77
2023/09/17 11:29:12;;;;;;;;;;;;;;;25.28;55.57;101139.81;4957993;28;121163;-77
2023/09/17 11:31:51;;;;;;;;;;;;;;;25.30;55.57;101140.50;4954572;28;119524;-77
2023/09/17 11:34:20;;;;;;;;;;;;;;;25.33;55.56;101151.03;4960185;28;125130;-77
2023/09/17 11:36:47;;;;;;;;;;;;;;;25.36;55.55;101145.28;4964000;28;124510;-77
2023/09/17 11:39:15;;;;;;;;;;;;;;;25.39;55.47;101145.00;4954072;28;119974;-77
2023/09/17 11:41:46;;;;;;;;;;;;;;;25.40;55.31;101145.84;4962952;28;118442;-77
2023/09/17 11:44:13;;;;;;;;;;;;;;;25.39;55.32;101144.13;4941089;28;125732;-77
2023/09/17 11:46:42;;;;;;;;;;;;;;;25.41;55.54;101153.81;4959524;28;124844;-77
2023/09/17 11:49:13;;;;;;;;;;;;;;;25.44;55.43;101164.31;4956502;28;117379;-77
2023/09/17 11:51:45;;;;;;;;;;;;;;;25.44;55.55;101158.91;4958572;28;116279;-77
2023/09/17 11:54:23;;;;;;;;;;;;;;;25.45;55.56;101160.63;4956336;28;125516;-77
2023/09/17 11:56:55;;;;;;;;;;;;;;;25.48;55.54;101169.44;4958157;28;123372;-77
2023/09/17 11:59:23;;;;;;;;;;;;;;;25.50;55.50;101172.84;4956913;28;119905;-76
2023/09/17 12:01:54;;;;;;;;;;;;;;;25.53;55.37;101167.13;4964121;28;119129;-77
2023/09/17 12:04:23;;;;;;;;;;;;;;;25.56;55.57;101162.22;4964865;28;123636;-77
2023/09/17 12:06:52;;;;;;;;;;;;;;;25.60;55.34;101162.75;4974942;28;123696;-76
2023/09/17 12:09:48;;;;;;;;;;;;;;;25.64;55.65;101164.13;4961774;28;121263;-76
2023/09/17 12:12:17;;;;;;;;;;;;;;;25.72;55.78;101161.47;4960381;28;119951;-76
2023/09/17 12:14:45;;;;;;;;;;;;;;;25.79;55.68;101162.53;4965902;28;124475;-76
2023/09/17 12:17:13;;;;;;;;;;;;;;;25.90;55.66;101153.25;4963698;28;124357;-77
2023/09/17 12:19:40;;;;;;;;;;;;;;;26.00;55.83;101161.31;4961087;28;120247;-77
2023/09/17 12:22:08;;;;;;;;;;;;;;;26.09;55.55;101152.19;4961595;28;120044;-76
2023/09/17 12:24:37;;;;;;;;;;;;;;;26.21;55.60;101150.03;4961681;28;124186;-76
2023/09/17 12:29:37;;;;;;;;;;;;;;;26.40;55.55;101154.31;4966013;28;120309;-76
2023/09/17 12:32:05;;;;;;;;;;;;;;;26.48;55.62;101150.78;4960664;28;118023;-76
2023/09/17 12:34:36;;;;;;;;;;;;;;;26.56;55.22;101154.38;4952419;28;125369;-76
2023/09/17 12:37:04;;;;;;;;;;;;;;;26.63;55.53;101153.72;4962595;28;124247;-76